RÉSULTATS    Les Foulées de la Cathédrale - Édition du 16/10/2021
1493 participants - 444 Femmes
- 1049 Hommes
110 licenciés (7%) - 1383 non-licenciés (93%)
Temps moyen : 00:52:52
| Position | Pos. | Temps | Nom - Prénom | Club | Dossard | Catégorie | km/h | Temps Reel | |
|---|---|---|---|---|---|---|---|---|---|
| 376 | 00:46:22 | NIETO Frederic | 732 | M0M (44 / 125) | 12.7 | 00:46:12 | |||
| 377 | 00:46:23 | VETTIER Stephane | 427 | M3M (27 / 115) | 12.8 | 00:45:53 | |||
| 378 | 00:46:25 | NEVEU Emmanuel | FITECO | 181 | M1M (52 / 157) | 12.8 | 00:45:56 | ||
| 379 | 00:46:25 | PAGE Margaux | ES JOUY ST-PREST ATHLETISME | 756 | CAF (3 / 6) | 12.7 | 00:46:18 | ||
| 380 | 00:46:29 | LAIGNEAU Laurent | 81 | M1M (53 / 157) | 12.6 | 00:46:25 | |||
| 381 | 00:46:30 | ZAIRI Khalid | 450 | M1M (54 / 157) | 12.7 | 00:46:11 | |||
| 382 | 00:46:31 | LEGALL Alexis | 1356 | SEM (108 / 257) | 12.6 | 00:46:25 | |||
| 383 | 00:46:31 | DUCHON Kevin | 1347 | M0M (45 / 125) | 12.6 | 00:46:25 | |||
| 384 | 00:46:32 | GUINCETRE Frederic | CSE INSTITUTION GUERY | 539 | M4M (17 / 85) | 12.7 | 00:46:14 | ||
| 385 | 00:46:37 | BLONDEAU Mickael | CREDIT AGRICOLE VAL DE FRANCE | 625 | SEM (109 / 257) | 12.6 | 00:46:19 | ||
| 386 | 00:46:38 | FOUQUET Sebastien | POLE RH INTERIM | 1046 | M1M (55 / 157) | 12.7 | 00:46:16 | ||
| 387 | 00:46:38 | MORHAN Sylvain | 162 | SEM (110 / 257) | 12.7 | 00:46:17 | |||
| 388 | 00:46:39 | GAUTHIER Arthur | 1401 | SEM (111 / 257) | 12.8 | 00:45:52 | |||
| 389 | 00:46:40 | LY Vang-tchong | 646 | M0M (46 / 125) | 12.7 | 00:46:16 | |||
| 390 | 00:46:44 | LEMOINE Christophe | GROLLES&CO | 1085 | M4M (18 / 85) | 12.6 | 00:46:28 | ||
| 391 | 00:46:44 | PLACENTE Alexandre | 773 | SEM (112 / 257) | 12.8 | 00:45:48 | |||
| 392 | 00:46:45 | LEROY Justin | 677 | ESM (22 / 42) | 12.6 | 00:46:37 | |||
| 393 | 00:46:45 | DERONZIER Gaelle | 964 | M3F (3 / 55) | 12.6 | 00:46:35 | |||
| 394 | 00:46:48 | PETIT Antonin | ES JOUY ST-PREST ATHLETISME | 441 | CAM (19 / 30) | 12.6 | 00:46:34 | ||
| 395 | 00:46:52 | VILLETTE Denis | 787 | M3M (28 / 115) | 12.6 | 00:46:29 | |||
| 396 | 00:46:52 | VERNIZEAU Morgane | 648 | SEF (7 / 99) | 12.6 | 00:46:30 | |||
| 397 | 00:46:55 | COQUAND Eloise | OC CHATEAUDUN BONNEVAL A.* | 731 | ESF (3 / 19) | 12.6 | 00:46:39 | ||
| 398 | 00:46:56 | CABART Leo | 629 | ESM (23 / 42) | 12.5 | 00:46:47 | |||
| 399 | 00:46:56 | MADREL Kyllian | FUN BIKE | 1467 | JUM (25 / 37) | 12.6 | 00:46:39 | ||
| 400 | 00:46:58 | GASSIN Jean-charles | 36 | M3M (29 / 115) | 12.5 | 00:46:47 |
